Time;durP1;ratioP1;P1;durP2;ratioP2;P2;SDS_P1;SDS_P2;PMS_P1;PMS_P2;Temp;Humidity;BMP_temperature;BMP_pressure;BME280_temperature;BME280_humidity;BME280_pressure;Samples;Min_cycle;Max_cycle;Signal;HPM_P1;HPM_P2
2023/07/16 00:01:45;;;;;;;10.20;5.30;;;20.40;1.00;;;;;;4989115;28;20210;-75
2023/07/16 00:04:11;;;;;;;7.20;4.50;;;20.50;1.00;;;;;;4988706;28;20194;-74
2023/07/16 00:06:36;;;;;;;7.20;4.60;;;20.50;1.00;;;;;;4987259;28;20210;-75
2023/07/16 00:09:03;;;;;;;7.67;4.50;;;20.50;1.00;;;;;;4988400;28;20218;-74
2023/07/16 00:11:28;;;;;;;6.30;4.57;;;20.40;1.00;;;;;;4987183;28;20260;-75
2023/07/16 00:13:54;;;;;;;8.93;4.50;;;20.40;1.00;;;;;;4987515;28;20540;-74
2023/07/16 00:16:19;;;;;;;8.00;4.70;;;20.40;1.00;;;;;;4988795;28;20202;-75
2023/07/16 00:18:45;;;;;;;9.17;4.70;;;20.20;1.00;;;;;;4989279;28;20191;-75
2023/07/16 00:21:10;;;;;;;7.70;4.40;;;20.10;1.00;;;;;;4988001;28;20846;-74
2023/07/16 00:23:36;;;;;;;4.77;3.93;;;20.10;1.00;;;;;;4985627;28;20676;-74
2023/07/16 00:26:02;;;;;;;8.03;4.17;;;20.00;1.00;;;;;;4985861;28;20206;-72
2023/07/16 00:28:28;;;;;;;8.30;4.03;;;20.10;1.00;;;;;;4988197;28;21164;-72
2023/07/16 00:30:53;;;;;;;7.63;3.87;;;20.00;1.00;;;;;;4988552;28;20217;-72
2023/07/16 00:33:19;;;;;;;6.20;4.07;;;20.00;1.00;;;;;;4983237;28;20707;-72
2023/07/16 00:35:49;;;;;;;5.60;3.60;;;20.00;1.00;;;;;;4991632;28;20194;-72
2023/07/16 00:38:14;;;;;;;6.10;3.70;;;19.90;1.00;;;;;;4985605;28;20201;-71
2023/07/16 00:40:40;;;;;;;5.50;3.40;;;19.80;1.00;;;;;;4990956;28;20474;-72
2023/07/16 00:43:05;;;;;;;4.77;3.47;;;19.80;1.00;;;;;;4993167;28;20178;-73
2023/07/16 00:45:31;;;;;;;6.67;3.70;;;19.80;1.00;;;;;;4991595;28;20191;-72
2023/07/16 00:47:57;;;;;;;8.53;3.60;;;19.80;1.00;;;;;;4991980;28;20210;-73
2023/07/16 00:50:23;;;;;;;5.00;3.33;;;19.70;1.00;;;;;;4993698;28;20253;-72
2023/07/16 00:52:49;;;;;;;6.03;3.67;;;19.70;1.00;;;;;;4993026;28;20971;-72
2023/07/16 00:55:15;;;;;;;4.17;3.03;;;19.70;1.00;;;;;;4988111;28;20214;-75
2023/07/16 00:57:40;;;;;;;6.10;3.57;;;19.70;1.00;;;;;;4992738;28;20202;-74
2023/07/16 01:00:07;;;;;;;5.30;3.30;;;20.10;1.00;;;;;;4992138;28;20190;-74
2023/07/16 01:02:33;;;;;;;6.23;3.40;;;19.60;1.00;;;;;;4991172;28;20306;-74
2023/07/16 01:04:59;;;;;;;5.63;3.53;;;19.50;1.00;;;;;;4992377;28;20521;-74
2023/07/16 01:07:26;;;;;;;5.23;3.23;;;19.40;1.00;;;;;;4992370;28;20298;-74
2023/07/16 01:09:54;;;;;;;9.40;3.23;;;19.50;1.00;;;;;;4992736;28;20472;-74
2023/07/16 01:12:22;;;;;;;6.90;3.63;;;19.40;1.00;;;;;;4990710;28;20552;-74
2023/07/16 01:14:49;;;;;;;5.80;3.30;;;19.30;1.00;;;;;;4992448;28;20901;-74
2023/07/16 01:17:15;;;;;;;3.90;3.00;;;19.30;1.00;;;;;;4992332;28;20473;-72
2023/07/16 01:19:40;;;;;;;5.47;3.10;;;19.30;1.00;;;;;;4991522;28;20442;-74
2023/07/16 01:22:30;;;;;;;6.30;3.40;;;19.20;1.00;;;;;;4992187;28;20199;-74
2023/07/16 01:25:24;;;;;;;5.50;2.80;;;19.20;1.00;;;;;;4985586;28;20263;-74
2023/07/16 01:28:11;;;;;;;4.53;2.73;;;19.10;1.00;;;;;;4985759;28;20414;-74
2023/07/16 01:30:40;;;;;;;4.10;2.80;;;19.10;1.00;;;;;;4990893;28;20442;-74
2023/07/16 01:33:07;;;;;;;4.47;3.20;;;19.10;1.00;;;;;;4991718;28;20430;-74
2023/07/16 01:35:34;;;;;;;3.50;2.67;;;19.10;1.00;;;;;;4990653;28;20437;-74
2023/07/16 01:38:00;;;;;;;5.17;2.93;;;19.00;1.00;;;;;;4989345;28;20498;-75
2023/07/16 01:40:25;;;;;;;4.53;2.97;;;19.00;1.00;;;;;;4990725;28;20458;-74
2023/07/16 01:42:51;;;;;;;5.13;3.40;;;;;;;;;;4987728;28;20182;-72
2023/07/16 01:45:17;;;;;;;4.97;3.00;;;19.00;1.00;;;;;;4990505;28;20187;-71
2023/07/16 01:48:01;;;;;;;6.57;3.10;;;19.00;1.00;;;;;;4992026;28;20262;-74
2023/07/16 01:50:27;;;;;;;5.83;2.80;;;18.90;1.00;;;;;;4991072;28;20900;-74
2023/07/16 01:52:52;;;;;;;9.20;3.50;;;18.90;1.00;;;;;;4991617;28;20521;-74
2023/07/16 01:55:18;;;;;;;6.80;3.47;;;18.80;1.00;;;;;;4989879;28;20932;-73
2023/07/16 01:57:43;;;;;;;7.40;4.00;;;18.80;1.00;;;;;;4991722;28;20187;-74
2023/07/16 02:00:10;;;;;;;4.93;3.00;;;18.80;1.00;;;;;;4990906;28;20197;-74
2023/07/16 02:02:35;;;;;;;4.73;3.07;;;18.70;1.00;;;;;;4991342;28;20207;-75
2023/07/16 02:05:01;;;;;;;9.23;3.27;;;18.70;1.00;;;;;;4991618;28;21140;-74
2023/07/16 02:07:28;;;;;;;6.60;3.33;;;18.70;1.00;;;;;;4991437;28;20191;-74
2023/07/16 02:09:53;;;;;;;5.13;2.70;;;18.70;1.00;;;;;;4990531;28;20222;-74
2023/07/16 02:12:19;;;;;;;5.57;3.00;;;18.60;1.00;;;;;;4987526;28;20489;-72
2023/07/16 02:14:44;;;;;;;5.90;2.40;;;18.40;1.00;;;;;;4989193;28;20202;-74
2023/07/16 02:17:10;;;;;;;4.80;3.03;;;18.30;1.00;;;;;;4991624;28;20183;-74
2023/07/16 02:19:35;;;;;;;4.53;3.10;;;18.20;1.00;;;;;;4990398;28;20186;-74
2023/07/16 02:22:01;;;;;;;5.57;2.60;;;18.20;1.00;;;;;;4990491;28;20620;-74
2023/07/16 02:24:26;;;;;;;3.63;2.60;;;18.10;1.00;;;;;;4989363;28;20183;-74
2023/07/16 02:26:52;;;;;;;4.30;2.83;;;18.10;1.00;;;;;;4989615;28;20480;-74
2023/07/16 02:29:17;;;;;;;6.17;3.17;;;18.10;1.00;;;;;;4989649;28;20222;-74
2023/07/16 02:31:45;;;;;;;5.20;2.73;;;18.20;1.00;;;;;;4989529;28;20203;-74
2023/07/16 02:34:11;;;;;;;6.07;2.90;;;18.20;1.00;;;;;;4987800;28;20686;-74
2023/07/16 02:36:36;;;;;;;5.27;2.93;;;18.20;1.00;;;;;;4987911;28;20439;-75
2023/07/16 02:39:03;;;;;;;5.07;3.13;;;18.20;1.00;;;;;;4990891;28;20179;-74
2023/07/16 02:41:28;;;;;;;5.33;3.00;;;18.20;1.00;;;;;;4988726;28;20747;-74
2023/07/16 02:44:03;;;;;;;5.27;3.30;;;18.30;1.00;;;;;;4994659;28;20436;-74
2023/07/16 02:46:28;;;;;;;3.43;2.80;;;18.30;1.00;;;;;;4987656;28;20213;-74
2023/07/16 02:48:54;;;;;;;9.67;3.20;;;18.40;1.00;;;;;;4989967;28;20559;-74
2023/07/16 02:51:19;;;;;;;5.80;2.87;;;18.40;1.00;;;;;;4989630;28;20265;-74
2023/07/16 02:53:45;;;;;;;4.53;2.83;;;18.40;1.00;;;;;;4987619;28;20676;-73
2023/07/16 02:56:10;;;;;;;4.47;2.90;;;18.50;1.00;;;;;;4989238;28;20194;-74
2023/07/16 02:58:36;;;;;;;6.23;2.80;;;18.50;1.00;;;;;;4988358;28;20284;-75
2023/07/16 03:01:01;;;;;;;4.63;2.43;;;20.30;1.00;;;;;;4987879;28;20218;-74
2023/07/16 03:03:27;;;;;;;6.03;2.83;;;18.70;1.00;;;;;;4984846;28;20853;-73
2023/07/16 03:05:52;;;;;;;5.53;2.50;;;18.70;1.00;;;;;;4987334;28;20211;-73
2023/07/16 03:08:18;;;;;;;5.27;2.50;;;18.70;1.00;;;;;;4988222;28;20195;-74
2023/07/16 03:10:43;;;;;;;6.40;3.03;;;18.70;1.00;;;;;;4989549;28;20203;-74
2023/07/16 03:13:09;;;;;;;4.63;2.60;;;18.80;1.00;;;;;;4989783;28;20677;-74
2023/07/16 03:15:34;;;;;;;7.73;2.90;;;18.80;1.00;;;;;;4989155;28;20190;-75
2023/07/16 03:18:00;;;;;;;7.70;2.87;;;18.80;1.00;;;;;;4989072;28;20222;-74
2023/07/16 03:20:25;;;;;;;6.33;2.80;;;18.80;1.00;;;;;;4989842;28;20230;-75
2023/07/16 03:22:51;;;;;;;7.27;3.10;;;18.80;1.00;;;;;;4989680;28;20273;-72
2023/07/16 03:25:16;;;;;;;4.20;3.00;;;18.80;1.00;;;;;;4988384;28;20563;-74
2023/07/16 03:27:42;;;;;;;4.43;2.90;;;18.90;1.00;;;;;;4989264;28;20191;-74
2023/07/16 03:30:08;;;;;;;4.33;2.30;;;18.90;1.00;;;;;;4989254;28;20249;-74
2023/07/16 03:32:33;;;;;;;8.03;2.97;;;18.90;1.00;;;;;;4988304;28;20245;-74
2023/07/16 03:34:59;;;;;;;7.90;2.67;;;18.90;1.00;;;;;;4988221;28;20662;-74
2023/07/16 03:37:24;;;;;;;7.47;2.87;;;18.80;1.00;;;;;;4989312;28;20194;-74
2023/07/16 03:39:50;;;;;;;5.67;3.07;;;18.80;1.00;;;;;;4989107;28;20245;-74
2023/07/16 03:42:16;;;;;;;7.53;3.00;;;18.80;1.00;;;;;;4988990;28;20218;-74
2023/07/16 03:44:41;;;;;;;4.33;2.73;;;19.60;1.00;;;;;;4988142;28;20455;-74
2023/07/16 03:47:07;;;;;;;7.60;3.00;;;18.60;1.00;;;;;;4989256;28;20193;-74
2023/07/16 03:49:32;;;;;;;6.50;2.70;;;18.60;1.00;;;;;;4989091;28;20699;-74
2023/07/16 03:51:58;;;;;;;8.13;2.80;;;18.50;1.00;;;;;;4989156;28;20293;-75
2023/07/16 03:54:23;;;;;;;4.93;2.90;;;18.50;1.00;;;;;;4987887;28;20191;-74
2023/07/16 03:56:49;;;;;;;6.43;3.00;;;18.50;1.00;;;;;;4986975;28;20657;-74
2023/07/16 03:59:14;;;;;;;8.90;2.77;;;18.50;1.00;;;;;;4987347;28;20645;-74
2023/07/16 04:01:40;;;;;;;6.47;2.87;;;18.40;1.00;;;;;;4990185;28;20773;-74
2023/07/16 04:04:06;;;;;;;4.70;2.53;;;18.40;1.00;;;;;;4987756;28;20665;-74
2023/07/16 04:06:31;;;;;;;5.30;3.00;;;18.40;1.00;;;;;;4989459;28;20218;-72
2023/07/16 04:08:56;;;;;;;6.33;3.00;;;19.90;1.00;;;;;;4987574;28;20199;-74
2023/07/16 04:11:22;;;;;;;5.50;2.97;;;18.40;1.00;;;;;;4988490;28;20297;-74
2023/07/16 04:13:48;;;;;;;6.40;2.90;;;18.30;1.00;;;;;;4989405;28;20668;-75
2023/07/16 04:16:13;;;;;;;5.50;3.10;;;18.30;1.00;;;;;;4992961;28;20619;-76
2023/07/16 04:18:39;;;;;;;10.47;2.93;;;18.40;1.00;;;;;;4991832;28;20186;-74
2023/07/16 04:21:04;;;;;;;5.57;2.90;;;18.50;1.00;;;;;;4992283;28;20300;-73
2023/07/16 04:23:30;;;;;;;4.40;2.87;;;18.50;1.00;;;;;;4992360;28;20270;-74
2023/07/16 04:25:55;;;;;;;5.80;2.80;;;18.70;1.00;;;;;;4991045;28;20253;-73
2023/07/16 04:28:21;;;;;;;6.50;2.60;;;18.80;1.00;;;;;;4992267;28;20728;-73
2023/07/16 04:30:47;;;;;;;7.10;3.17;;;18.90;1.00;;;;;;4990369;28;20202;-74
2023/07/16 04:33:12;;;;;;;5.03;3.10;;;18.80;1.00;;;;;;4992601;28;20179;-74
2023/07/16 04:35:38;;;;;;;5.03;2.70;;;18.90;1.00;;;;;;4991478;28;20175;-74
2023/07/16 04:38:03;;;;;;;4.80;2.73;;;18.90;1.00;;;;;;4992258;28;20645;-74
2023/07/16 04:40:29;;;;;;;6.20;2.70;;;19.00;1.00;;;;;;4992703;28;20688;-74
2023/07/16 04:42:55;;;;;;;6.00;2.77;;;19.00;1.00;;;;;;4991069;28;20215;-73
2023/07/16 04:45:21;;;;;;;6.20;2.80;;;19.00;1.00;;;;;;4989524;28;20478;-74
2023/07/16 04:47:46;;;;;;;7.60;2.80;;;19.00;1.00;;;;;;4991554;28;20242;-73
2023/07/16 04:50:12;;;;;;;6.37;2.80;;;19.00;1.00;;;;;;4990532;28;20252;-73
2023/07/16 04:52:38;;;;;;;6.87;2.53;;;19.10;1.00;;;;;;4991282;28;20214;-73
2023/07/16 04:55:03;;;;;;;4.63;2.30;;;19.10;1.00;;;;;;4991476;28;20197;-73
2023/07/16 04:57:29;;;;;;;3.97;2.47;;;19.00;1.00;;;;;;4992350;28;20191;-75
2023/07/16 04:59:54;;;;;;;5.67;2.40;;;19.00;1.00;;;;;;4989343;28;20190;-73
2023/07/16 05:02:21;;;;;;;6.37;3.20;;;20.10;1.00;;;;;;4991521;28;20215;-73
2023/07/16 05:04:49;;;;;;;6.37;2.80;;;18.90;1.00;;;;;;4991367;28;20306;-74
2023/07/16 05:07:15;;;;;;;7.90;3.20;;;18.80;1.00;;;;;;4991146;28;20430;-73
2023/07/16 05:09:41;;;;;;;12.40;2.97;;;18.90;1.00;;;;;;4991408;28;21018;-73
2023/07/16 05:12:07;;;;;;;7.60;2.63;;;18.80;1.00;;;;;;4991031;28;20693;-73
2023/07/16 05:14:44;;;;;;;8.93;3.20;;;18.80;1.00;;;;;;4991597;28;20446;-74
2023/07/16 05:17:09;;;;;;;4.50;2.50;;;18.80;1.00;;;;;;4991620;28;20179;-74
2023/07/16 05:19:35;;;;;;;6.10;2.40;;;18.90;1.00;;;;;;4991969;28;20493;-73
2023/07/16 05:22:00;;;;;;;5.73;2.63;;;18.90;1.00;;;;;;4990468;28;20737;-73
2023/07/16 05:24:26;;;;;;;7.30;2.70;;;19.00;1.00;;;;;;4989042;28;20209;-73
2023/07/16 05:26:54;;;;;;;7.43;2.47;;;19.00;1.00;;;;;;4989890;28;20202;-75
2023/07/16 05:29:19;;;;;;;6.97;2.73;;;19.00;1.00;;;;;;4988507;28;20314;-73
2023/07/16 05:31:46;;;;;;;5.83;2.60;;;19.00;1.00;;;;;;4988241;28;21052;-74
2023/07/16 05:34:12;;;;;;;12.80;2.60;;;19.10;1.00;;;;;;4990913;28;20237;-73
2023/07/16 05:36:38;;;;;;;7.20;3.17;;;19.10;1.00;;;;;;4990030;28;20860;-74
2023/07/16 05:39:03;;;;;;;7.13;2.60;;;19.10;1.00;;;;;;4989454;28;20183;-74
2023/07/16 05:41:29;;;;;;;7.17;2.87;;;19.10;1.00;;;;;;4990761;28;20211;-74
2023/07/16 05:43:54;;;;;;;9.17;2.63;;;19.10;1.00;;;;;;4990671;28;20530;-73
2023/07/16 05:46:20;;;;;;;4.80;2.43;;;19.20;1.00;;;;;;4990972;28;20581;-74
2023/07/16 05:48:45;;;;;;;6.90;2.70;;;19.80;1.00;;;;;;4991523;28;20526;-74
2023/07/16 05:51:11;;;;;;;6.63;2.97;;;19.30;1.00;;;;;;4989798;28;20612;-73
2023/07/16 05:53:36;;;;;;;7.50;2.63;;;19.40;1.00;;;;;;4989485;28;20206;-73
2023/07/16 05:56:02;;;;;;;6.60;2.90;;;19.40;1.00;;;;;;4992212;28;20179;-74
2023/07/16 05:58:29;;;;;;;9.40;2.70;;;19.50;1.00;;;;;;4991065;28;20241;-73
2023/07/16 06:00:54;;;;;;;8.63;2.93;;;19.50;1.00;;;;;;4987923;28;20458;-75
2023/07/16 06:03:20;;;;;;;5.67;3.10;;;19.60;1.00;;;;;;4990649;28;20441;-75
2023/07/16 06:05:45;;;;;;;8.10;2.80;;;19.60;1.00;;;;;;4987786;28;20180;-74
2023/07/16 06:08:12;;;;;;;5.93;2.60;;;19.60;1.00;;;;;;4989061;28;20175;-73
2023/07/16 06:10:38;;;;;;;7.20;2.90;;;19.60;1.00;;;;;;4990054;28;20733;-74
2023/07/16 06:13:04;;;;;;;5.93;2.33;;;19.60;1.00;;;;;;4988492;28;20466;-74
2023/07/16 06:15:29;;;;;;;8.63;2.80;;;19.50;1.00;;;;;;4990346;28;20857;-74
2023/07/16 06:17:55;;;;;;;7.90;3.00;;;19.50;1.00;;;;;;4987680;28;20842;-75
2023/07/16 06:20:21;;;;;;;6.07;2.53;;;19.60;1.00;;;;;;4991205;28;20266;-74
2023/07/16 06:22:46;;;;;;;6.50;2.40;;;19.60;1.00;;;;;;4989648;28;20809;-74
2023/07/16 06:25:12;;;;;;;13.00;3.13;;;19.60;1.00;;;;;;4989136;28;20539;-74
2023/07/16 06:27:38;;;;;;;9.33;3.10;;;19.60;1.00;;;;;;4990079;28;20297;-73
2023/07/16 06:30:05;;;;;;;8.70;3.10;;;19.50;1.00;;;;;;4988175;28;21075;-73
2023/07/16 06:32:31;;;;;;;5.83;2.97;;;19.60;1.00;;;;;;4987903;28;20203;-74
2023/07/16 06:34:56;;;;;;;6.23;2.77;;;19.80;1.00;;;;;;4989009;28;20446;-76
2023/07/16 06:37:23;;;;;;;5.50;2.60;;;19.90;1.00;;;;;;4988726;28;20187;-74
2023/07/16 06:39:49;;;;;;;7.33;3.00;;;20.00;1.00;;;;;;4991020;28;20221;-75
2023/07/16 06:42:15;;;;;;;12.10;3.40;;;20.10;1.00;;;;;;4990515;28;20470;-75
2023/07/16 06:44:40;;;;;;;7.83;2.70;;;20.40;1.00;;;;;;4989560;28;20223;-72
2023/07/16 06:47:06;;;;;;;5.23;2.90;;;20.70;1.00;;;;;;4988941;28;20283;-75
2023/07/16 06:49:31;;;;;;;5.77;2.70;;;20.80;1.00;;;;;;4989638;28;20210;-75
2023/07/16 06:51:57;;;;;;;6.03;2.90;;;;;;;;;;4987975;28;20711;-75
2023/07/16 06:54:23;;;;;;;6.10;2.80;;;21.30;1.00;;;;;;4988906;28;20217;-74
2023/07/16 06:56:48;;;;;;;5.67;2.97;;;21.30;1.00;;;;;;4983821;28;20650;-75
2023/07/16 06:59:14;;;;;;;10.77;3.07;;;21.10;1.00;;;;;;4993147;28;20190;-74
2023/07/16 07:01:39;;;;;;;5.53;2.90;;;21.00;1.00;;;;;;4990749;28;20281;-74
2023/07/16 07:04:05;;;;;;;6.87;2.90;;;21.00;1.00;;;;;;4990045;28;20198;-75
2023/07/16 07:06:30;;;;;;;6.97;3.17;;;21.10;1.00;;;;;;4989325;28;20191;-76
2023/07/16 07:08:56;;;;;;;8.50;3.07;;;21.30;1.00;;;;;;4990208;28;20195;-75
2023/07/16 07:11:21;;;;;;;8.13;3.50;;;21.50;1.00;;;;;;4990610;28;20218;-75
2023/07/16 07:13:47;;;;;;;6.77;3.60;;;21.40;1.00;;;;;;4992675;28;20202;-76
2023/07/16 07:16:12;;;;;;;7.73;3.07;;;21.30;1.00;;;;;;4989222;28;20549;-75
2023/07/16 07:18:38;;;;;;;9.80;3.70;;;21.30;1.00;;;;;;4990393;28;20185;-75
2023/07/16 07:21:03;;;;;;;7.10;2.90;;;21.40;1.00;;;;;;4989793;28;20209;-75
2023/07/16 07:23:29;;;;;;;6.60;3.30;;;21.50;1.00;;;;;;4990159;28;20187;-75
2023/07/16 07:25:54;;;;;;;7.60;2.83;;;21.60;1.00;;;;;;4990886;28;20826;-75
2023/07/16 07:28:20;;;;;;;7.40;3.60;;;21.60;1.00;;;;;;4990454;28;20667;-75
2023/07/16 07:30:46;;;;;;;7.20;3.37;;;22.00;1.00;;;;;;4989157;28;20696;-76
2023/07/16 07:33:12;;;;;;;8.13;4.03;;;22.40;1.00;;;;;;4986817;28;20185;-74
2023/07/16 07:35:38;;;;;;;6.17;3.20;;;22.70;1.00;;;;;;4988951;28;20237;-74
2023/07/16 07:38:03;;;;;;;8.38;3.22;;;22.70;1.00;;;;;;4989243;28;20997;-72
2023/07/16 07:40:29;;;;;;;10.60;3.50;;;23.30;1.00;;;;;;4987515;28;20187;-75
2023/07/16 07:42:54;;;;;;;6.33;3.50;;;23.30;1.00;;;;;;4989276;28;20703;-75
2023/07/16 07:45:20;;;;;;;10.77;3.80;;;23.40;1.00;;;;;;4987876;28;20695;-76
2023/07/16 07:47:45;;;;;;;13.70;3.03;;;23.20;1.00;;;;;;4989781;28;20205;-76
2023/07/16 07:50:11;;;;;;;8.17;3.53;;;23.70;1.00;;;;;;4988545;28;20214;-78
2023/07/16 07:52:36;;;;;;;8.63;3.07;;;24.30;1.00;;;;;;4987277;28;20207;-80
2023/07/16 07:55:03;;;;;;;8.67;3.50;;;24.40;1.00;;;;;;4986643;28;20179;-76
2023/07/16 07:57:29;;;;;;;7.43;2.80;;;24.50;1.00;;;;;;4987270;28;20190;-73
2023/07/16 07:59:57;;;;;;;10.43;3.17;;;24.10;1.00;;;;;;4984952;28;20462;-75
2023/07/16 08:02:23;;;;;;;6.57;3.30;;;24.30;1.00;;;;;;4990342;28;20457;-76
2023/07/16 08:04:51;;;;;;;6.40;3.10;;;24.20;1.00;;;;;;4993638;28;20430;-76
2023/07/16 08:07:17;;;;;;;9.20;3.67;;;24.00;1.00;;;;;;4989714;28;20430;-76
2023/07/16 08:09:42;;;;;;;10.73;3.53;;;24.20;1.00;;;;;;4990037;28;20838;-76
2023/07/16 08:12:08;;;;;;;5.80;2.90;;;24.30;1.00;;;;;;4989620;28;20492;-76
2023/07/16 08:14:34;;;;;;;5.30;2.87;;;24.50;1.00;;;;;;4989764;28;20236;-76
2023/07/16 08:16:59;;;;;;;5.30;3.00;;;24.70;1.00;;;;;;4988586;28;20256;-75
2023/07/16 08:19:25;;;;;;;8.93;3.50;;;24.60;1.00;;;;;;4990005;28;20313;-75
2023/07/16 08:21:50;;;;;;;6.27;3.07;;;24.70;1.00;;;;;;4989951;28;20221;-76
2023/07/16 08:24:16;;;;;;;11.00;3.10;;;25.20;1.00;;;;;;4989272;28;20193;-76
2023/07/16 08:26:41;;;;;;;6.80;2.97;;;25.60;1.00;;;;;;4989777;28;20197;-75
2023/07/16 08:29:07;;;;;;;6.30;3.37;;;25.50;1.00;;;;;;4989426;28;20549;-76
2023/07/16 08:31:32;;;;;;;7.67;3.13;;;25.30;1.00;;;;;;4989631;28;20214;-76
2023/07/16 08:33:58;;;;;;;8.20;3.37;;;25.20;1.00;;;;;;4989238;28;20190;-75
2023/07/16 08:36:23;;;;;;;7.13;3.40;;;25.30;1.00;;;;;;4989717;28;20244;-76
2023/07/16 08:38:49;;;;;;;8.73;3.07;;;25.10;1.00;;;;;;4990006;28;20195;-76
2023/07/16 08:41:15;;;;;;;5.10;3.10;;;25.20;1.00;;;;;;4987454;28;20233;-76
2023/07/16 08:43:42;;;;;;;9.53;3.27;;;24.80;1.00;;;;;;4989403;28;20541;-76
2023/07/16 08:46:08;;;;;;;7.93;3.00;;;24.80;1.00;;;;;;4995055;28;20190;-76
2023/07/16 08:48:34;;;;;;;6.57;2.93;;;25.00;1.00;;;;;;4988331;28;20427;-76
2023/07/16 08:51:02;;;;;;;7.83;3.20;;;25.30;1.00;;;;;;4989424;28;20441;-76
2023/07/16 08:53:27;;;;;;;8.63;3.10;;;25.50;1.00;;;;;;4989455;28;20278;-77
2023/07/16 08:55:53;;;;;;;6.60;2.93;;;25.50;1.00;;;;;;4989530;28;21018;-76
2023/07/16 08:58:22;;;;;;;6.10;3.33;;;25.80;1.00;;;;;;4989117;28;20561;-75
2023/07/16 09:00:48;;;;;;;6.07;2.70;;;25.80;1.00;;;;;;4990894;28;20270;-76
2023/07/16 09:03:16;;;;;;;8.97;3.23;;;25.10;1.00;;;;;;4992584;28;20979;-77
2023/07/16 09:05:42;;;;;;;10.20;3.00;;;25.30;1.00;;;;;;4992803;28;20472;-76
2023/07/16 09:08:08;;;;;;;9.30;3.20;;;26.10;1.00;;;;;;4992628;28;20484;-76
2023/07/16 09:10:34;;;;;;;9.80;3.57;;;27.10;1.00;;;;;;4992826;28;20473;-76
2023/07/16 09:13:00;;;;;;;11.53;3.30;;;27.20;1.00;;;;;;4991138;28;20607;-75
2023/07/16 09:15:27;;;;;;;8.47;3.00;;;27.00;1.00;;;;;;4992808;28;20417;-76
2023/07/16 09:17:54;;;;;;;8.00;3.53;;;27.40;1.00;;;;;;4991353;28;20317;-76
2023/07/16 09:20:20;;;;;;;7.53;2.70;;;28.00;1.00;;;;;;4992450;28;20841;-74
2023/07/16 09:22:47;;;;;;;6.17;2.80;;;28.00;1.00;;;;;;4991360;28;20226;-77
2023/07/16 09:25:13;;;;;;;7.23;2.50;;;29.20;1.00;;;;;;4991953;28;20187;-77
2023/07/16 09:27:39;;;;;;;13.30;2.90;;;28.50;1.00;;;;;;4992491;28;20178;-76
2023/07/16 09:30:05;;;;;;;8.40;2.97;;;28.30;1.00;;;;;;4992329;28;20229;-76
2023/07/16 09:32:41;;;;;;;10.70;3.23;;;28.00;1.00;;;;;;4992336;28;20245;-76
2023/07/16 09:35:11;;;;;;;8.80;2.60;;;27.70;1.00;;;;;;4991841;28;20185;-76
2023/07/16 09:37:38;;;;;;;5.70;2.83;;;28.80;1.00;;;;;;4989580;28;20185;-76
2023/07/16 09:40:09;;;;;;;7.20;2.50;;;28.80;1.00;;;;;;4988802;28;20271;-78
2023/07/16 09:42:41;;;;;;;6.55;2.63;;;28.30;1.00;;;;;;4991936;28;20620;-77
2023/07/16 09:45:18;;;;;;;6.17;2.60;;;27.40;1.00;;;;;;4991492;28;20197;-76
2023/07/16 09:47:45;;;;;;;9.13;2.50;;;27.40;1.00;;;;;;4991769;28;20663;-77
2023/07/16 09:50:11;;;;;;;11.40;2.83;;;27.60;1.00;;;;;;4991487;28;20669;-77
2023/07/16 09:52:37;;;;;;;5.50;2.77;;;28.10;1.00;;;;;;4991204;28;20229;-77
2023/07/16 09:55:03;;;;;;;12.67;3.47;;;28.60;1.00;;;;;;4990858;28;20182;-76
2023/07/16 09:57:35;;;;;;;5.22;2.55;;;29.50;1.00;;;;;;4992132;28;20191;-76
2023/07/16 10:00:05;;;;;;;10.15;2.72;;;30.60;1.00;;;;;;4991607;28;20305;-76
2023/07/16 10:02:35;;;;;;;7.13;2.45;;;31.60;1.00;;;;;;4983407;28;20281;-77
2023/07/16 10:05:11;;;;;;;8.68;2.88;;;32.10;1.00;;;;;;4990644;28;20233;-77
2023/07/16 10:07:37;;;;;;;6.47;2.80;;;32.30;1.00;;;;;;4994096;28;20186;-77
2023/07/16 10:10:08;;;;;;;6.18;2.63;;;32.20;1.00;;;;;;4991268;28;20224;-77
2023/07/16 10:12:34;;;;;;;10.25;2.95;;;32.60;1.00;;;;;;4990719;28;20211;-78
2023/07/16 10:15:04;;;;;;;7.03;2.50;;;33.30;1.00;;;;;;4990726;28;20174;-77
2023/07/16 10:17:30;;;;;;;5.20;2.50;;;33.10;1.00;;;;;;4989155;28;20187;-77
2023/07/16 10:20:03;;;;;;;5.93;2.90;;;32.70;1.00;;;;;;4991093;28;20183;-77
2023/07/16 10:22:33;;;;;;;6.10;2.80;;;30.90;1.00;;;;;;4990592;28;20365;-76
2023/07/16 10:25:00;;;;;;;8.68;2.67;;;29.70;1.00;;;;;;4989371;28;20255;-76
2023/07/16 10:27:27;;;;;;;5.70;3.00;;;29.60;1.00;;;;;;4990395;28;20187;-77
2023/07/16 10:29:54;;;;;;;9.55;3.28;;;29.60;1.00;;;;;;4990538;28;20202;-76
2023/07/16 10:32:20;;;;;;;5.20;2.40;;;29.10;1.00;;;;;;4988497;28;20210;-77
2023/07/16 10:34:46;;;;;;;5.70;2.53;;;29.10;1.00;;;;;;4991063;28;20174;-76
2023/07/16 10:37:11;;;;;;;6.80;2.80;;;28.70;1.00;;;;;;4987641;28;20183;-76
2023/07/16 10:39:51;;;;;;;4.97;2.90;;;28.40;1.00;;;;;;4986220;28;20191;-76
2023/07/16 10:42:17;;;;;;;7.27;3.00;;;28.70;1.00;;;;;;4987200;28;20287;-77
2023/07/16 10:44:43;;;;;;;6.33;3.00;;;28.90;1.00;;;;;;4987156;28;20184;-76
2023/07/16 10:47:17;;;;;;;6.93;2.92;;;29.80;1.00;;;;;;4986633;28;20188;-77
2023/07/16 10:49:44;;;;;;;6.30;2.63;;;30.60;1.00;;;;;;4987429;28;20808;-77
2023/07/16 10:52:10;;;;;;;6.90;2.80;;;30.80;1.00;;;;;;4981478;28;20267;-76
2023/07/16 10:54:35;;;;;;;6.07;2.88;;;29.80;1.00;;;;;;4988196;28;20178;-79
2023/07/16 10:57:01;;;;;;;12.68;3.03;;;31.00;1.00;;;;;;4980178;28;20234;-78
2023/07/16 10:59:27;;;;;;;7.35;2.70;;;;;;;;;;4988122;28;20209;-78
2023/07/16 11:01:52;;;;;;;7.00;2.95;;;32.40;1.00;;;;;;4988859;28;20213;-77
2023/07/16 11:04:18;;;;;;;7.95;3.00;;;32.20;1.00;;;;;;4985488;28;20680;-78
2023/07/16 11:06:43;;;;;;;5.30;2.58;;;33.20;1.00;;;;;;4989269;28;20193;-78
2023/07/16 11:09:09;;;;;;;5.93;2.92;;;31.50;1.00;;;;;;4985616;28;20603;-78
2023/07/16 11:11:35;;;;;;;6.95;2.63;;;31.00;1.00;;;;;;4988669;28;20219;-77
2023/07/16 11:14:06;;;;;;;5.60;2.80;;;30.60;1.00;;;;;;4988252;28;20187;-78
2023/07/16 11:16:38;;;;;;;6.72;2.90;;;30.10;1.00;;;;;;4986383;28;20209;-80
2023/07/16 11:19:05;;;;;;;5.00;2.17;;;30.60;1.00;;;;;;4987849;28;20797;-79
2023/07/16 11:21:33;;;;;;;6.03;2.92;;;31.90;1.00;;;;;;4984365;28;20214;-76
2023/07/16 11:24:19;;;;;;;4.65;2.45;;;31.30;1.00;;;;;;4985313;28;20186;-77
2023/07/16 11:26:52;;;;;;;5.88;2.83;;;30.20;1.00;;;;;;4985786;28;20242;-76
2023/07/16 11:29:17;;;;;;;7.00;2.78;;;29.40;1.00;;;;;;4986558;28;20206;-76
2023/07/16 11:31:43;;;;;;;5.57;2.60;;;29.60;1.00;;;;;;4987252;28;20190;-77
2023/07/16 11:34:13;;;;;;;5.97;2.67;;;30.00;1.00;;;;;;4987110;28;20190;-79
2023/07/16 11:36:38;;;;;;;6.55;3.00;;;29.80;1.00;;;;;;4986250;28;20205;-76
2023/07/16 11:39:04;;;;;;;8.75;2.85;;;30.10;1.00;;;;;;4987125;28;20186;-76
2023/07/16 11:41:30;;;;;;;7.38;3.08;;;30.60;1.00;;;;;;4985739;28;20222;-76
2023/07/16 11:44:00;;;;;;;4.70;2.60;;;30.20;1.00;;;;;;4985979;28;20197;-75
2023/07/16 11:46:32;;;;;;;8.25;3.25;;;30.40;1.00;;;;;;4988034;28;20213;-76
2023/07/16 11:48:57;;;;;;;8.40;3.15;;;29.70;1.00;;;;;;4987025;28;20206;-75
2023/07/16 11:51:23;;;;;;;6.47;2.70;;;30.00;1.00;;;;;;4986752;28;20697;-76
2023/07/16 11:53:48;;;;;;;7.78;3.25;;;30.50;1.00;;;;;;4986622;28;20225;-73
2023/07/16 11:56:14;;;;;;;5.90;2.70;;;31.80;1.00;;;;;;4987170;28;20183;-73
2023/07/16 11:58:39;;;;;;;6.32;2.95;;;32.60;1.00;;;;;;4987804;28;20186;-76
2023/07/16 12:01:05;;;;;;;10.95;3.13;;;34.80;1.00;;;;;;4987011;28;20206;-75
2023/07/16 12:03:30;;;;;;;9.77;3.42;;;35.10;1.00;;;;;;4983313;28;20657;-76
2023/07/16 12:05:56;;;;;;;5.40;2.65;;;35.60;1.00;;;;;;4986186;28;20181;-76
2023/07/16 12:08:21;;;;;;;7.40;2.70;;;34.80;1.00;;;;;;4988443;28;20186;-76
2023/07/16 12:10:47;;;;;;;6.63;2.83;;;33.30;1.00;;;;;;4991571;28;20202;-76
2023/07/16 12:13:12;;;;;;;4.82;2.60;;;31.70;1.00;;;;;;4988520;28;20188;-76
2023/07/16 12:15:38;;;;;;;6.53;2.45;;;32.90;1.00;;;;;;4986689;28;20197;-76
2023/07/16 12:18:04;;;;;;;5.57;2.67;;;34.30;1.00;;;;;;4987349;28;20210;-76
2023/07/16 12:20:29;;;;;;;6.80;2.70;;;36.50;1.00;;;;;;4986297;28;20186;-76
2023/07/16 12:22:55;;;;;;;5.65;2.63;;;34.60;1.00;;;;;;4985173;28;20193;-75
2023/07/16 12:25:21;;;;;;;7.80;2.95;;;34.10;1.00;;;;;;4984483;28;20270;-74
2023/07/16 12:27:46;;;;;;;6.28;2.60;;;33.90;1.00;;;;;;4986357;28;20596;-75
2023/07/16 12:30:12;;;;;;;6.43;3.10;;;34.90;1.00;;;;;;4986780;28;20260;-76
2023/07/16 12:32:38;;;;;;;6.65;2.53;;;36.90;1.00;;;;;;4981470;28;20199;-76
2023/07/16 12:35:04;;;;;;;7.65;2.55;;;37.10;1.00;;;;;;4991464;28;20175;-77
2023/07/16 12:37:30;;;;;;;4.95;2.63;;;36.90;1.00;;;;;;4992404;28;20585;-76
2023/07/16 12:39:55;;;;;;;7.32;2.75;;;37.80;1.00;;;;;;4991726;28;20182;-77
2023/07/16 12:42:21;;;;;;;9.48;2.70;;;37.50;1.00;;;;;;4990155;28;20214;-76
2023/07/16 12:44:46;;;;;;;7.28;3.20;;;37.10;1.00;;;;;;4993768;28;20214;-77
2023/07/16 12:47:12;;;;;;;5.68;2.78;;;36.40;1.00;;;;;;4990073;28;20530;-76
2023/07/16 12:49:37;;;;;;;6.55;2.55;;;35.90;1.00;;;;;;4990562;28;20206;-76
2023/07/16 12:52:03;;;;;;;6.20;2.60;;;36.00;1.00;;;;;;4989990;28;20202;-76
2023/07/16 12:54:29;;;;;;;6.13;2.47;;;36.90;1.00;;;;;;4989737;28;20190;-76